createdAt,value
2023-01-19T00:01:30.211Z,100097.91
2023-01-19T00:03:59.376Z,100097.91
2023-01-19T00:06:27.091Z,100097.91
2023-01-19T00:08:54.909Z,100098.72
2023-01-19T00:11:22.752Z,100099.75
2023-01-19T00:13:51.027Z,100095.44
2023-01-19T00:16:22.882Z,100093.59
2023-01-19T00:18:52.226Z,100095.25
2023-01-19T00:21:22.640Z,100091.97
2023-01-19T00:23:52.533Z,100102.44
2023-01-19T00:26:22.280Z,100094.03
2023-01-19T00:28:50.823Z,100102.63
2023-01-19T00:31:20.543Z,100103.88
2023-01-19T00:33:49.358Z,100098.34
2023-01-19T00:36:17.424Z,100109.22
2023-01-19T00:38:46.567Z,100108.38
2023-01-19T00:41:14.313Z,100114.53
2023-01-19T00:43:41.037Z,100112.91
2023-01-19T00:46:08.788Z,100108.59
2023-01-19T00:48:36.685Z,100106.13
2023-01-19T00:51:04.744Z,100106.13
2023-01-19T00:53:32.540Z,100114.97
2023-01-19T00:56:01.710Z,100108.81
2023-01-19T00:58:29.405Z,100108.19
2023-01-19T01:01:03.584Z,100107.16
2023-01-19T01:03:31.666Z,100100.19
2023-01-19T01:05:59.429Z,100099.16
2023-01-19T01:08:27.124Z,100104.72
2023-01-19T01:10:56.090Z,100095.06
2023-01-19T01:13:27.490Z,100101.41
2023-01-19T01:15:56.926Z,100107.97
2023-01-19T01:18:25.057Z,100109.41
2023-01-19T01:20:55.172Z,100093.63
2023-01-19T01:23:23.667Z,100098.94
2023-01-19T01:25:51.405Z,100105.09
2023-01-19T01:28:19.159Z,100107.97
2023-01-19T01:30:48.213Z,100112.69
2023-01-19T01:33:15.947Z,100111.66
2023-01-19T01:36:03.603Z,100117.00
2023-01-19T01:38:31.284Z,100119.88
2023-01-19T01:40:58.995Z,100118.03
2023-01-19T01:43:43.768Z,100113.72
2023-01-19T01:46:15.467Z,100122.53
2023-01-19T01:48:47.588Z,100120.69
2023-01-19T01:51:26.708Z,100130.53
2023-01-19T01:54:07.887Z,100114.53
2023-01-19T01:56:39.745Z,100114.34
2023-01-19T01:59:10.582Z,100123.38
2023-01-19T02:01:57.892Z,100129.72
2023-01-19T02:04:25.834Z,100132.59
2023-01-19T02:07:11.078Z,100138.75
2023-01-19T02:09:56.578Z,100144.09
2023-01-19T02:12:42.485Z,100142.44
2023-01-19T02:15:17.104Z,100132.00
2023-01-19T02:17:46.287Z,100137.13
2023-01-19T02:20:14.719Z,100143.25
2023-01-19T02:22:49.020Z,100144.91
2023-01-19T02:25:21.112Z,100142.44
2023-01-19T02:27:50.143Z,100143.47
2023-01-19T02:30:18.906Z,100141.84
2023-01-19T02:32:47.021Z,100140.00
2023-01-19T02:35:14.935Z,100145.31
2023-01-19T02:37:44.788Z,100141.41
2023-01-19T02:40:15.238Z,100148.59
2023-01-19T02:42:46.902Z,100157.84
2023-01-19T02:45:18.178Z,100145.94
2023-01-19T02:47:49.209Z,100158.03
2023-01-19T02:50:43.629Z,100158.03
2023-01-19T02:53:24.323Z,100155.16
2023-01-19T02:55:58.085Z,100164.19
2023-01-19T02:58:34.788Z,100170.56
2023-01-19T03:01:14.541Z,100165.22
2023-01-19T03:03:53.040Z,100175.06
2023-01-19T03:06:34.593Z,100179.78
2023-01-19T03:09:05.455Z,100177.13
2023-01-19T03:11:39.957Z,100179.16
2023-01-19T03:14:12.373Z,100173.00
2023-01-19T03:16:43.898Z,100179.38
2023-01-19T03:19:19.174Z,100177.13
2023-01-19T03:21:50.048Z,100175.47
2023-01-19T03:24:20.512Z,100188.81
2023-01-19T03:26:52.211Z,100178.34
2023-01-19T03:29:23.552Z,100188.19
2023-01-19T03:31:53.484Z,100188.19
2023-01-19T03:34:23.995Z,100198.25
2023-01-19T03:36:54.456Z,100195.78
2023-01-19T03:39:25.746Z,100201.13
2023-01-19T03:41:56.061Z,100205.63
2023-01-19T03:44:28.679Z,100203.78
2023-01-19T03:46:57.694Z,100206.84
2023-01-19T03:49:25.783Z,100215.47
2023-01-19T03:51:56.511Z,100217.31
2023-01-19T03:54:24.444Z,100221.22
2023-01-19T03:56:52.908Z,100219.56
2023-01-19T03:59:21.771Z,100228.38
2023-01-19T04:01:51.003Z,100227.75
2023-01-19T04:04:18.732Z,100229.00
2023-01-19T04:06:46.471Z,100229.19
2023-01-19T04:09:14.374Z,100245.38
2023-01-19T04:11:42.113Z,100246.41
2023-01-19T04:14:09.843Z,100248.47
2023-01-19T04:16:37.530Z,100249.47
2023-01-19T04:19:06.590Z,100245.19
2023-01-19T04:21:34.931Z,100249.47
2023-01-19T04:24:02.678Z,100251.31
2023-01-19T04:26:30.341Z,100262.19
2023-01-19T04:28:59.048Z,100259.94
2023-01-19T04:31:27.242Z,100275.09
2023-01-19T04:33:57.016Z,100273.47
2023-01-19T04:36:26.152Z,100275.91
2023-01-19T04:38:53.808Z,100275.28
2023-01-19T04:41:21.742Z,100277.13
2023-01-19T04:43:49.528Z,100282.47
2023-01-19T04:46:17.260Z,100274.69
2023-01-19T04:48:45.034Z,100289.63
2023-01-19T04:51:12.721Z,100278.38
2023-01-19T04:53:41.765Z,100284.72
2023-01-19T04:56:09.457Z,100279.19
2023-01-19T04:58:37.227Z,100283.69
2023-01-19T05:01:08.739Z,100290.25
2023-01-19T05:03:36.548Z,100287.59
2023-01-19T05:06:04.745Z,100280.63
2023-01-19T05:08:32.436Z,100277.31
2023-01-19T05:11:01.613Z,100274.47
2023-01-19T05:13:29.271Z,100267.69
2023-01-19T05:15:57.024Z,100250.88
2023-01-19T05:18:24.709Z,100240.22
2023-01-19T05:20:52.417Z,100232.25
2023-01-19T05:23:20.122Z,100237.38
2023-01-19T05:25:48.031Z,100230.00
2023-01-19T05:28:17.134Z,100222.00
2023-01-19T05:30:44.915Z,100232.44
2023-01-19T05:33:12.613Z,100234.09
2023-01-19T05:35:40.306Z,100236.75
2023-01-19T05:38:08.020Z,100272.22
2023-01-19T05:40:35.797Z,100273.25
2023-01-19T05:43:05.202Z,100283.91
2023-01-19T05:45:34.895Z,100289.84
2023-01-19T05:48:02.807Z,100288.19
2023-01-19T05:50:30.611Z,100292.09
2023-01-19T05:52:59.053Z,100274.88
2023-01-19T05:55:27.505Z,100286.75
2023-01-19T05:57:55.275Z,100278.78
2023-01-19T06:00:23.305Z,100279.78
2023-01-19T06:02:52.344Z,100269.56
2023-01-19T06:05:20.299Z,100258.72
2023-01-19T06:07:48.011Z,100266.72
2023-01-19T06:10:15.714Z,100270.44
2023-01-19T06:12:43.996Z,100270.25
2023-01-19T06:15:12.832Z,100276.00
2023-01-19T06:17:40.543Z,100277.19
2023-01-19T06:20:11.108Z,100268.13
2023-01-19T06:22:38.819Z,100286.59
2023-01-19T06:25:07.317Z,100279.22
2023-01-19T06:27:35.049Z,100290.72
2023-01-19T06:30:02.859Z,100282.34
2023-01-19T06:32:30.966Z,100302.88
2023-01-19T06:34:58.692Z,100317.84
2023-01-19T06:37:28.609Z,100318.25
2023-01-19T06:39:56.326Z,100320.28
2023-01-19T06:42:24.107Z,100313.09
2023-01-19T06:44:51.811Z,100324.38
2023-01-19T06:47:19.527Z,100325.78
2023-01-19T06:49:48.097Z,100330.09
2023-01-19T06:52:17.488Z,100336.66
2023-01-19T06:54:46.800Z,100340.34
2023-01-19T06:57:15.185Z,100350.59
2023-01-19T06:59:43.134Z,100348.31
2023-01-19T07:02:26.557Z,100353.84
2023-01-19T07:04:55.815Z,100343.78
2023-01-19T07:07:23.529Z,100348.31
2023-01-19T07:09:53.867Z,100357.31
2023-01-19T07:12:22.023Z,100357.53
2023-01-19T07:14:50.429Z,100348.69
2023-01-19T07:17:18.302Z,100342.72
2023-01-19T07:19:46.534Z,100331.06
2023-01-19T07:22:14.225Z,100342.97
2023-01-19T07:24:41.947Z,100351.78
2023-01-19T07:27:11.581Z,100345.59
2023-01-19T07:29:39.614Z,100354.00
2023-01-19T07:32:07.605Z,100379.00
2023-01-19T07:34:36.442Z,100375.72
2023-01-19T07:37:04.436Z,100386.16
2023-01-19T07:39:32.484Z,100384.31
2023-01-19T07:42:00.348Z,100383.91
2023-01-19T07:44:29.406Z,100386.59
2023-01-19T07:46:57.108Z,100389.44
2023-01-19T07:49:25.548Z,100400.09
2023-01-19T07:51:53.252Z,100406.25
2023-01-19T07:54:21.272Z,100410.97
2023-01-19T07:56:49.013Z,100409.13
2023-01-19T07:59:16.783Z,100410.13
2023-01-19T08:01:45.990Z,100408.50
2023-01-19T08:04:14.141Z,100411.16
2023-01-19T08:06:46.253Z,100410.13
2023-01-19T08:09:14.297Z,100412.19
2023-01-19T08:11:42.013Z,100417.31
2023-01-19T08:14:10.016Z,100416.69
2023-01-19T08:16:37.747Z,100422.84
2023-01-19T08:19:07.045Z,100418.97
2023-01-19T08:21:35.945Z,100431.66
2023-01-19T08:24:03.738Z,100437.19
2023-01-19T08:26:32.910Z,100436.16
2023-01-19T08:29:03.122Z,100433.06
2023-01-19T08:31:31.225Z,100444.34
2023-01-19T08:33:59.058Z,100450.31
2023-01-19T08:36:28.277Z,100451.31
2023-01-19T08:38:56.080Z,100459.13
2023-01-19T08:41:23.967Z,100461.16
2023-01-19T08:43:51.667Z,100468.31
2023-01-19T08:46:21.900Z,100473.47
2023-01-19T08:48:50.346Z,100478.16
2023-01-19T08:51:19.062Z,100483.50
2023-01-19T08:53:48.194Z,100481.84
2023-01-19T08:56:15.988Z,100487.81
2023-01-19T08:58:46.716Z,100491.47
2023-01-19T09:01:18.815Z,100492.50
2023-01-19T09:03:47.110Z,100485.56
2023-01-19T09:06:17.131Z,100494.50
2023-01-19T09:08:45.362Z,100504.00
2023-01-19T09:11:17.304Z,100493.00
2023-01-19T09:13:45.742Z,100493.25
2023-01-19T09:16:15.293Z,100497.19
2023-01-19T09:18:43.295Z,100494.56
2023-01-19T09:21:11.548Z,100499.13
2023-01-19T09:23:39.308Z,100499.97
2023-01-19T09:26:07.601Z,100504.09
2023-01-19T09:28:38.142Z,100508.59
2023-01-19T09:31:07.960Z,100502.19
2023-01-19T09:33:36.230Z,100498.50
2023-01-19T09:36:04.038Z,100503.81
2023-01-19T09:38:33.064Z,100490.88
2023-01-19T09:41:01.842Z,100493.34
2023-01-19T09:43:40.709Z,100509.38
2023-01-19T09:46:15.196Z,100510.63
2023-01-19T09:48:48.672Z,100514.09
2023-01-19T09:51:20.209Z,100516.97
2023-01-19T09:54:03.964Z,100522.31
2023-01-19T09:56:32.783Z,100519.63
2023-01-19T09:59:02.661Z,100527.22
2023-01-19T10:01:46.503Z,100523.72
2023-01-19T10:04:41.280Z,100526.56
2023-01-19T10:07:20.517Z,100531.72
2023-01-19T10:10:04.064Z,100540.56
2023-01-19T10:12:44.678Z,100535.81
2023-01-19T10:15:27.706Z,100537.69
2023-01-19T10:18:09.495Z,100534.19
2023-01-19T10:20:41.535Z,100534.41
2023-01-19T10:23:22.939Z,100538.97
2023-01-19T10:25:50.717Z,100539.59
2023-01-19T10:28:24.067Z,100539.78
2023-01-19T10:30:55.828Z,100531.78
2023-01-19T10:33:23.754Z,100550.28
2023-01-19T10:35:51.528Z,100551.56
2023-01-19T10:38:22.204Z,100551.34
2023-01-19T10:40:58.460Z,100555.44
2023-01-19T10:43:44.215Z,100547.63
2023-01-19T10:46:22.081Z,100549.50
2023-01-19T10:48:52.119Z,100547.41
2023-01-19T10:51:20.223Z,100547.41
2023-01-19T10:53:57.278Z,100547.19
2023-01-19T10:56:25.673Z,100540.19
2023-01-19T10:58:53.398Z,100544.31
2023-01-19T11:01:24.214Z,100555.00
2023-01-19T11:03:53.324Z,100558.34
2023-01-19T11:06:26.917Z,100554.81
2023-01-19T11:09:10.460Z,100551.09
2023-01-19T11:11:44.205Z,100557.66
2023-01-19T11:14:13.825Z,100563.38
2023-01-19T11:16:48.360Z,100559.88
2023-01-19T11:19:21.700Z,100560.47
2023-01-19T11:21:49.545Z,100564.56
2023-01-19T11:24:17.737Z,100558.59
2023-01-19T11:26:47.916Z,100562.91
2023-01-19T11:29:19.084Z,100553.66
2023-01-19T11:31:48.617Z,100550.31
2023-01-19T11:34:32.667Z,100547.03
2023-01-19T11:37:02.485Z,100553.41
2023-01-19T11:39:31.627Z,100550.31
2023-01-19T11:42:02.438Z,100549.69
2023-01-19T11:44:33.797Z,100552.75
2023-01-19T11:47:05.967Z,100546.94
2023-01-19T11:49:41.481Z,100551.91
2023-01-19T11:52:20.807Z,100551.25
2023-01-19T11:54:55.668Z,100554.13
2023-01-19T11:57:23.580Z,100558.00
2023-01-19T11:59:51.297Z,100553.50
2023-01-19T12:02:28.258Z,100550.00
2023-01-19T12:04:57.661Z,100559.84
2023-01-19T12:07:29.337Z,100545.50
2023-01-19T12:10:07.471Z,100543.84
2023-01-19T12:12:40.450Z,100553.69
2023-01-19T12:15:22.389Z,100549.59
2023-01-19T12:17:54.640Z,100552.06
2023-01-19T12:20:30.024Z,100553.69
2023-01-19T12:23:08.412Z,100543.09
2023-01-19T12:25:48.314Z,100554.03
2023-01-19T12:28:19.771Z,100550.00
2023-01-19T12:30:47.864Z,100547.59
2023-01-19T12:33:38.319Z,100554.00
2023-01-19T12:36:11.426Z,100548.25
2023-01-19T12:38:46.561Z,100551.13
2023-01-19T12:41:20.948Z,100556.66
2023-01-19T12:43:49.863Z,100546.97
2023-01-19T12:46:25.613Z,100548.19
2023-01-19T12:48:55.383Z,100545.34
2023-01-19T12:51:24.471Z,100545.16
2023-01-19T12:53:54.452Z,100553.78
2023-01-19T12:56:31.055Z,100555.66
2023-01-19T12:58:59.047Z,100554.19
2023-01-19T13:01:27.028Z,100561.78
2023-01-19T13:04:06.637Z,100562.38
2023-01-19T13:07:13.679Z,100560.09
2023-01-19T13:09:43.114Z,100563.56
2023-01-19T13:12:25.696Z,100566.84
2023-01-19T13:15:28.584Z,100571.13
2023-01-19T13:17:56.981Z,100563.91
2023-01-19T13:20:29.522Z,100566.16
2023-01-19T13:23:23.362Z,100561.22
2023-01-19T13:26:02.363Z,100562.66
2023-01-19T13:28:38.753Z,100563.88
2023-01-19T13:31:07.297Z,100564.06
2023-01-19T13:33:44.228Z,100567.81
2023-01-19T13:36:29.767Z,100560.69
2023-01-19T13:39:00.224Z,100555.19
2023-01-19T13:41:31.681Z,100564.28
2023-01-19T13:44:03.245Z,100556.06
2023-01-19T13:46:33.260Z,100557.31
2023-01-19T13:49:05.683Z,100566.94
2023-01-19T13:51:34.730Z,100570.44
2023-01-19T13:54:02.774Z,100568.56
2023-01-19T13:56:31.043Z,100565.03
2023-01-19T13:59:01.218Z,100565.03
2023-01-19T14:01:30.136Z,100552.88
2023-01-19T14:03:58.241Z,100570.75
2023-01-19T14:06:35.561Z,100570.53
2023-01-19T14:09:16.844Z,100574.81
2023-01-19T14:11:45.455Z,100569.88
2023-01-19T14:14:27.654Z,100571.31
2023-01-19T14:16:55.868Z,100575.19
2023-01-19T14:19:23.948Z,100572.72
2023-01-19T14:22:05.631Z,100565.50
2023-01-19T14:24:33.434Z,100574.13
2023-01-19T14:27:20.343Z,100581.50
2023-01-19T14:29:50.477Z,100575.00
2023-01-19T14:32:19.742Z,100578.78
2023-01-19T14:34:50.175Z,100579.03
2023-01-19T14:37:22.797Z,100574.13
2023-01-19T14:39:52.419Z,100582.16
2023-01-19T14:42:24.792Z,100573.50
2023-01-19T14:44:54.288Z,100582.13
2023-01-19T14:47:37.863Z,100583.34
2023-01-19T14:50:19.977Z,100582.09
2023-01-19T14:52:57.023Z,100586.78
2023-01-19T14:55:26.822Z,100591.28
2023-01-19T14:57:55.669Z,100588.19
2023-01-19T15:00:27.137Z,100581.00
2023-01-19T15:02:54.912Z,100592.91
2023-01-19T15:05:22.701Z,100584.28
2023-01-19T15:07:52.587Z,100597.69
2023-01-19T15:10:22.255Z,100595.47
2023-01-19T15:12:51.249Z,100603.72
2023-01-19T15:15:25.836Z,100599.22
2023-01-19T15:17:56.297Z,100610.72
2023-01-19T15:20:24.747Z,100613.41
2023-01-19T15:22:53.840Z,100611.31
2023-01-19T15:25:26.089Z,100607.38
2023-01-19T15:27:54.162Z,100615.59
2023-01-19T15:30:27.799Z,100624.41
2023-01-19T15:32:55.606Z,100627.88
2023-01-19T15:35:25.951Z,100627.44
2023-01-19T15:37:55.002Z,100622.91
2023-01-19T15:40:23.282Z,100629.47
2023-01-19T15:42:51.511Z,100634.38
2023-01-19T15:45:42.980Z,100635.78
2023-01-19T15:48:12.356Z,100639.06
2023-01-19T15:50:42.192Z,100640.69
2023-01-19T15:53:15.229Z,100635.22
2023-01-19T15:55:43.009Z,100643.50
2023-01-19T15:58:12.078Z,100647.69
2023-01-19T16:00:41.981Z,100642.16
2023-01-19T16:03:11.384Z,100647.91
2023-01-19T16:05:43.353Z,100650.59
2023-01-19T16:08:13.066Z,100653.66
2023-01-19T16:10:41.368Z,100651.00
2023-01-19T16:13:10.083Z,100654.25
2023-01-19T16:15:38.777Z,100658.91
2023-01-19T16:18:06.859Z,100666.31
2023-01-19T16:20:34.751Z,100669.97
2023-01-19T16:23:14.603Z,100678.78
2023-01-19T16:25:44.726Z,100684.72
2023-01-19T16:28:12.499Z,100677.50
2023-01-19T16:30:40.394Z,100692.06
2023-01-19T16:33:08.459Z,100689.78
2023-01-19T16:35:36.210Z,100690.81
2023-01-19T16:38:03.994Z,100693.88
2023-01-19T16:40:31.747Z,100690.78
2023-01-19T16:43:00.862Z,100690.16
2023-01-19T16:45:28.799Z,100694.84
2023-01-19T16:47:56.540Z,100697.09
2023-01-19T16:50:24.339Z,100707.75
2023-01-19T16:52:57.699Z,100707.94
2023-01-19T16:55:25.387Z,100708.97
2023-01-19T16:57:53.505Z,100702.81
2023-01-19T17:00:22.911Z,100705.69
2023-01-19T17:02:50.668Z,100699.72
2023-01-19T17:05:18.559Z,100705.72
2023-01-19T17:07:46.243Z,100710.53
2023-01-19T17:10:14.197Z,100710.22
2023-01-19T17:12:41.899Z,100709.09
2023-01-19T17:15:10.420Z,100715.31
2023-01-19T17:17:39.558Z,100709.56
2023-01-19T17:20:08.412Z,100714.13
2023-01-19T17:22:36.273Z,100714.94
2023-01-19T17:25:04.223Z,100719.25
2023-01-19T17:27:32.015Z,100722.31
2023-01-19T17:29:59.748Z,100716.09
2023-01-19T17:32:27.464Z,100709.88
2023-01-19T17:34:56.535Z,100726.06
2023-01-19T17:37:24.265Z,100722.75
2023-01-19T17:39:51.971Z,100718.19
2023-01-19T17:42:19.667Z,100724.13
2023-01-19T17:44:47.387Z,100724.72
2023-01-19T17:47:15.098Z,100723.66
2023-01-19T17:49:42.867Z,100725.25
2023-01-19T17:52:11.932Z,100723.81
2023-01-19T17:54:39.617Z,100727.06
2023-01-19T17:57:07.401Z,100723.13
2023-01-19T17:59:35.183Z,100715.75
2023-01-19T18:02:02.978Z,100729.72
2023-01-19T18:04:32.213Z,100730.94
2023-01-19T18:07:00.056Z,100728.47
2023-01-19T18:09:29.185Z,100722.13
2023-01-19T18:11:56.874Z,100722.50
2023-01-19T18:14:24.583Z,100706.66
2023-01-19T18:16:52.324Z,100717.41
2023-01-19T18:19:22.152Z,100722.81
2023-01-19T18:21:50.970Z,100732.59
2023-01-19T18:24:18.817Z,100732.88
2023-01-19T18:26:47.886Z,100731.31
2023-01-19T18:29:16.624Z,100724.38
2023-01-19T18:31:44.408Z,100735.94
2023-01-19T18:34:12.184Z,100742.94
2023-01-19T18:36:39.885Z,100739.25
2023-01-19T18:39:09.393Z,100739.25
2023-01-19T18:41:41.584Z,100745.81
2023-01-19T18:44:11.258Z,100745.16
2023-01-19T18:46:40.162Z,100752.94
2023-01-19T18:49:07.902Z,100753.75
2023-01-19T18:51:36.668Z,100753.50
2023-01-19T18:54:04.452Z,100746.06
2023-01-19T18:56:32.155Z,100744.59
2023-01-19T18:59:00.106Z,100746.41
2023-01-19T19:01:32.954Z,100745.34
2023-01-19T19:04:01.172Z,100747.78
2023-01-19T19:06:29.222Z,100750.66
2023-01-19T19:08:59.200Z,100749.19
2023-01-19T19:11:27.131Z,100751.25
2023-01-19T19:13:56.651Z,100754.94
2023-01-19T19:16:24.558Z,100755.13
2023-01-19T19:18:53.789Z,100750.19
2023-01-19T19:21:23.980Z,100760.22
2023-01-19T19:23:52.751Z,100756.09
2023-01-19T19:26:20.783Z,100754.22
2023-01-19T19:28:48.563Z,100761.22
2023-01-19T19:31:18.192Z,100759.13
2023-01-19T19:33:45.936Z,100767.31
2023-01-19T19:36:15.591Z,100768.97
2023-01-19T19:38:44.483Z,100768.72
2023-01-19T19:41:14.326Z,100762.97
2023-01-19T19:43:42.080Z,100760.47
2023-01-19T19:46:11.613Z,100771.16
2023-01-19T19:48:39.921Z,100776.88
2023-01-19T19:51:18.024Z,100770.53
2023-01-19T19:53:51.155Z,100777.06
2023-01-19T19:56:21.952Z,100778.28
2023-01-19T19:58:50.462Z,100776.81
2023-01-19T20:01:20.109Z,100778.88
2023-01-19T20:03:47.935Z,100780.72
2023-01-19T20:06:20.639Z,100783.19
2023-01-19T20:08:50.505Z,100791.56
2023-01-19T20:11:19.942Z,100797.09
2023-01-19T20:13:47.812Z,100797.28
2023-01-19T20:16:17.444Z,100804.28
2023-01-19T20:18:48.579Z,100808.78
2023-01-19T20:21:18.123Z,100813.66
2023-01-19T20:23:46.837Z,100812.81
2023-01-19T20:26:17.934Z,100815.50
2023-01-19T20:28:45.957Z,100824.69
2023-01-19T20:31:16.324Z,100826.34
2023-01-19T20:33:44.931Z,100834.53
2023-01-19T20:36:12.959Z,100831.22
2023-01-19T20:38:41.485Z,100844.94
2023-01-19T20:41:11.031Z,100841.47
2023-01-19T20:43:40.487Z,100839.81
2023-01-19T20:46:08.289Z,100842.66
2023-01-19T20:48:36.182Z,100844.50
2023-01-19T20:51:05.442Z,100859.88
2023-01-19T20:53:33.456Z,100862.53
2023-01-19T20:56:06.096Z,100860.69
2023-01-19T20:58:34.382Z,100874.22
2023-01-19T21:01:10.948Z,100873.38
2023-01-19T21:03:38.856Z,100887.09
2023-01-19T21:06:06.958Z,100884.44
2023-01-19T21:08:34.748Z,100874.97
2023-01-19T21:11:02.524Z,100883.78
2023-01-19T21:13:30.626Z,100887.28
2023-01-19T21:15:58.565Z,100895.47
2023-01-19T21:18:28.030Z,100898.31
2023-01-19T21:20:57.424Z,100908.16
2023-01-19T21:23:25.542Z,100915.34
2023-01-19T21:25:55.026Z,100922.50
2023-01-19T21:28:23.697Z,100927.19
2023-01-19T21:30:52.145Z,100924.34
2023-01-19T21:33:21.136Z,100936.03
2023-01-19T21:35:54.641Z,100936.03
2023-01-19T21:38:23.421Z,100939.91
2023-01-19T21:40:51.286Z,100945.50
2023-01-19T21:43:20.093Z,100944.84
2023-01-19T21:45:48.917Z,100954.69
2023-01-19T21:48:17.002Z,100946.88
2023-01-19T21:50:44.911Z,100951.19
2023-01-19T21:53:13.994Z,100949.53
2023-01-19T21:55:45.525Z,100949.34
2023-01-19T21:58:13.332Z,100949.34
2023-01-19T22:00:41.179Z,100950.38
2023-01-19T22:03:09.101Z,100956.72
2023-01-19T22:05:37.481Z,100947.63
2023-01-19T22:08:06.303Z,100955.88
2023-01-19T22:10:38.142Z,100961.41
2023-01-19T22:13:06.754Z,100965.91
2023-01-19T22:15:34.533Z,100974.28
2023-01-19T22:18:02.303Z,100977.78
2023-01-19T22:20:30.054Z,100974.28
2023-01-19T22:22:58.067Z,100975.47
2023-01-19T22:25:27.798Z,100978.97
2023-01-19T22:27:58.635Z,100980.81
2023-01-19T22:30:26.577Z,100984.13
2023-01-19T22:32:54.527Z,100980.81
2023-01-19T22:35:22.266Z,100980.16
2023-01-19T22:37:49.959Z,100978.31
2023-01-19T22:40:18.375Z,100987.16
2023-01-19T22:42:47.638Z,100975.84
2023-01-19T22:45:17.014Z,100980.34
2023-01-19T22:47:44.859Z,100984.03
2023-01-19T22:50:13.009Z,100988.53
2023-01-19T22:52:40.718Z,100988.53
2023-01-19T22:55:08.984Z,100992.03
2023-01-19T22:57:37.328Z,100982.38
2023-01-19T23:00:07.021Z,100989.34
2023-01-19T23:02:36.147Z,100990.19
2023-01-19T23:05:03.907Z,100987.72
2023-01-19T23:07:31.606Z,100988.72
2023-01-19T23:09:59.522Z,100996.53
2023-01-19T23:12:27.285Z,100991.38
2023-01-19T23:14:55.066Z,100994.22
2023-01-19T23:17:22.784Z,100988.91
2023-01-19T23:19:51.807Z,100993.41
2023-01-19T23:22:19.653Z,100990.94
2023-01-19T23:24:47.363Z,100990.09
2023-01-19T23:27:15.080Z,100996.44
2023-01-19T23:29:42.791Z,100989.28
2023-01-19T23:32:10.450Z,100993.78
2023-01-19T23:34:38.162Z,100995.63
2023-01-19T23:37:07.232Z,100986.97
2023-01-19T23:39:34.922Z,100985.31
2023-01-19T23:42:03.575Z,100993.13
2023-01-19T23:44:31.307Z,100996.81
2023-01-19T23:46:58.989Z,100995.97
2023-01-19T23:49:26.980Z,101002.13
2023-01-19T23:51:54.672Z,101001.50
2023-01-19T23:54:23.768Z,101008.47
2023-01-19T23:56:51.490Z,101001.31
2023-01-19T23:59:19.250Z,101004.97
